createdAt,value
2018-03-22T00:01:40.980Z,6.65
2018-03-22T00:04:09.082Z,6.66
2018-03-22T00:06:37.185Z,6.77
2018-03-22T00:09:05.280Z,6.78
2018-03-22T00:11:33.390Z,6.77
2018-03-22T00:14:01.489Z,6.84
2018-03-22T00:16:29.574Z,6.86
2018-03-22T00:18:57.679Z,6.90
2018-03-22T00:21:25.845Z,6.93
2018-03-22T00:23:53.943Z,6.94
2018-03-22T00:26:22.041Z,6.98
2018-03-22T00:28:55.111Z,7.00
2018-03-22T00:31:23.214Z,7.02
2018-03-22T00:36:26.960Z,6.98
2018-03-22T00:38:55.066Z,6.96
2018-03-22T00:41:23.191Z,6.97
2018-03-22T00:43:51.297Z,6.99
2018-03-22T00:59:19.430Z,6.95
2018-03-22T01:01:47.528Z,6.97
2018-03-22T01:04:15.630Z,6.91
2018-03-22T01:06:43.748Z,6.94
2018-03-22T01:22:11.883Z,6.97
2018-03-22T01:24:40.288Z,6.99
2018-03-22T01:27:08.623Z,7.00
2018-03-22T01:29:36.733Z,7.03
2018-03-22T01:32:04.845Z,7.05
2018-03-22T01:34:38.481Z,7.04
2018-03-22T01:37:06.597Z,7.06
2018-03-22T01:39:34.691Z,7.11
2018-03-22T01:42:02.804Z,7.08
2018-03-22T01:44:30.913Z,7.13
2018-03-22T01:46:59.011Z,7.13
2018-03-22T01:49:27.147Z,7.14
2018-03-22T01:51:55.217Z,7.15
2018-03-22T01:54:23.353Z,7.16
2018-03-22T01:56:51.447Z,7.19
2018-03-22T01:59:20.471Z,7.20
2018-03-22T02:01:48.621Z,7.22
2018-03-22T02:04:16.722Z,7.16
2018-03-22T02:06:44.835Z,7.21
2018-03-22T02:09:12.943Z,7.26
2018-03-22T02:11:41.855Z,7.16
2018-03-22T02:14:09.957Z,7.21
2018-03-22T02:16:38.055Z,7.20
2018-03-22T02:19:06.187Z,7.18
2018-03-22T02:21:34.294Z,7.18
2018-03-22T02:24:02.400Z,7.17
2018-03-22T02:26:30.543Z,7.18
2018-03-22T02:28:58.688Z,7.18
2018-03-22T02:31:26.794Z,7.12
2018-03-22T02:33:54.890Z,7.10
2018-03-22T02:36:23.000Z,7.14
2018-03-22T02:38:51.251Z,7.14
2018-03-22T02:41:19.368Z,7.17
2018-03-22T02:43:47.540Z,7.15
2018-03-22T02:46:15.630Z,7.05
2018-03-22T02:48:43.743Z,7.09
2018-03-22T02:51:11.988Z,7.08
2018-03-22T02:53:40.046Z,7.04
2018-03-22T02:56:08.156Z,7.02
2018-03-22T02:58:36.593Z,7.08
2018-03-22T03:01:04.698Z,7.05
2018-03-22T03:03:32.797Z,7.01
2018-03-22T03:06:00.915Z,7.03
2018-03-22T03:08:29.014Z,7.08
2018-03-22T03:10:57.413Z,7.04
2018-03-22T03:13:25.524Z,7.03
2018-03-22T03:15:53.613Z,7.03
2018-03-22T03:18:22.449Z,6.97
2018-03-22T03:20:50.566Z,6.96
2018-03-22T03:23:18.706Z,6.92
2018-03-22T03:25:47.689Z,6.91
2018-03-22T03:28:15.810Z,6.88
2018-03-22T03:30:43.916Z,6.84
2018-03-22T03:33:12.031Z,6.79
2018-03-22T03:35:40.195Z,6.79
2018-03-22T03:38:08.833Z,6.75
2018-03-22T03:40:36.926Z,6.72
2018-03-22T03:43:05.063Z,6.69
2018-03-22T03:45:33.151Z,6.67
2018-03-22T03:48:02.006Z,6.66
2018-03-22T03:50:30.113Z,6.64
2018-03-22T03:52:58.224Z,6.58
2018-03-22T03:55:26.335Z,6.58
2018-03-22T03:57:55.385Z,6.62
2018-03-22T04:00:23.478Z,6.56
2018-03-22T04:02:51.583Z,6.55
2018-03-22T04:05:19.697Z,6.57
2018-03-22T04:07:47.794Z,6.62
2018-03-22T04:10:15.899Z,6.55
2018-03-22T04:12:44.008Z,6.62
2018-03-22T04:15:12.107Z,6.66
2018-03-22T04:17:40.200Z,6.57
2018-03-22T04:20:08.301Z,6.51
2018-03-22T04:22:37.365Z,6.58
2018-03-22T04:25:05.445Z,6.61
2018-03-22T04:27:33.583Z,6.61
2018-03-22T04:30:01.673Z,6.58
2018-03-22T04:32:30.479Z,6.49
2018-03-22T04:34:58.577Z,6.50
2018-03-22T04:37:26.705Z,6.47
2018-03-22T04:39:54.789Z,6.49
2018-03-22T04:42:22.891Z,6.45
2018-03-22T04:44:50.998Z,6.45
2018-03-22T04:47:20.350Z,6.48
2018-03-22T04:49:48.454Z,6.48
2018-03-22T04:52:16.563Z,6.48
2018-03-22T04:54:45.295Z,6.51
2018-03-22T04:57:13.393Z,6.46
2018-03-22T04:59:41.549Z,6.48
2018-03-22T05:02:09.675Z,6.49
2018-03-22T05:04:37.773Z,6.46
2018-03-22T05:07:05.866Z,6.48
2018-03-22T05:09:33.967Z,6.49
2018-03-22T05:12:02.942Z,6.43
2018-03-22T05:14:31.083Z,6.48
2018-03-22T05:16:59.161Z,6.41
2018-03-22T05:19:27.246Z,6.45
2018-03-22T05:21:55.367Z,6.49
2018-03-22T05:24:23.448Z,6.50
2018-03-22T05:26:51.539Z,6.55
2018-03-22T05:29:19.644Z,6.55
2018-03-22T05:31:47.741Z,6.58
2018-03-22T05:34:15.832Z,6.60
2018-03-22T05:49:43.950Z,6.53
2018-03-22T05:52:12.085Z,6.58
2018-03-22T05:54:40.162Z,6.57
2018-03-22T05:57:08.279Z,6.58
2018-03-22T05:59:36.386Z,6.62
2018-03-22T06:02:04.487Z,6.65
2018-03-22T06:04:32.689Z,6.63
2018-03-22T06:07:00.761Z,6.62
2018-03-22T06:09:28.860Z,6.62
2018-03-22T06:11:57.003Z,6.66
2018-03-22T06:14:25.104Z,6.64
2018-03-22T06:16:53.179Z,6.67
2018-03-22T06:19:21.610Z,6.64
2018-03-22T06:21:49.935Z,6.68
2018-03-22T06:24:18.038Z,6.71
2018-03-22T06:26:46.155Z,6.73
2018-03-22T06:29:14.250Z,6.73
2018-03-22T06:31:42.345Z,6.74
2018-03-22T06:34:10.491Z,6.68
2018-03-22T06:36:38.592Z,6.71
2018-03-22T06:39:06.702Z,6.72
2018-03-22T06:41:34.840Z,6.80
2018-03-22T06:44:02.940Z,6.77
2018-03-22T06:46:31.038Z,6.82
2018-03-22T06:48:59.141Z,6.83
2018-03-22T06:51:27.266Z,6.76
2018-03-22T06:53:55.359Z,6.87
2018-03-22T06:56:23.453Z,6.84
2018-03-22T06:58:52.393Z,6.94
2018-03-22T07:01:20.565Z,6.96
2018-03-22T07:03:50.647Z,6.94
2018-03-22T07:06:18.775Z,6.99
2018-03-22T07:08:46.874Z,7.00
2018-03-22T07:11:14.970Z,6.94
2018-03-22T07:13:43.071Z,6.93
2018-03-22T07:16:11.185Z,7.02
2018-03-22T07:18:39.285Z,7.04
2018-03-22T07:21:07.408Z,7.08
2018-03-22T07:23:35.504Z,7.07
2018-03-22T07:39:04.261Z,7.02
2018-03-22T07:41:32.361Z,7.04
2018-03-22T07:44:06.136Z,7.03
2018-03-22T07:46:34.234Z,7.04
2018-03-22T07:49:02.343Z,7.03
2018-03-22T07:51:31.342Z,7.07
2018-03-22T07:53:59.463Z,7.07
2018-03-22T07:56:32.519Z,7.07
2018-03-22T07:59:00.713Z,7.07
2018-03-22T08:01:28.790Z,7.05
2018-03-22T08:03:56.896Z,7.04
2018-03-22T08:06:25.037Z,7.04
2018-03-22T08:08:53.139Z,7.02
2018-03-22T08:11:21.271Z,7.04
2018-03-22T08:13:49.390Z,7.07
2018-03-22T08:16:17.710Z,7.05
2018-03-22T08:18:45.815Z,7.07
2018-03-22T08:21:13.917Z,7.07
2018-03-22T08:23:42.066Z,7.08
2018-03-22T08:26:10.175Z,7.09
2018-03-22T08:28:38.252Z,7.07
2018-03-22T08:31:06.368Z,7.10
2018-03-22T08:33:34.460Z,7.12
2018-03-22T08:36:02.577Z,7.16
2018-03-22T08:38:30.687Z,7.16
2018-03-22T08:41:00.086Z,7.15
2018-03-22T08:43:29.059Z,7.15
2018-03-22T08:45:57.188Z,7.18
2018-03-22T08:48:25.293Z,7.15
2018-03-22T08:50:53.375Z,7.20
2018-03-22T08:53:21.488Z,7.23
2018-03-22T08:55:49.573Z,7.22
2018-03-22T08:58:17.688Z,7.23
2018-03-22T09:00:45.822Z,7.23
2018-03-22T09:16:13.976Z,7.26
2018-03-22T09:18:42.062Z,7.22
2018-03-22T09:21:10.163Z,7.25
2018-03-22T09:23:38.328Z,7.27
2018-03-22T09:26:06.432Z,7.30
2018-03-22T09:28:34.541Z,7.32
2018-03-22T09:31:02.655Z,7.33
2018-03-22T09:33:30.763Z,7.35
2018-03-22T09:35:59.073Z,7.38
2018-03-22T09:38:27.184Z,7.40
2018-03-22T09:40:56.039Z,7.45
2018-03-22T09:43:24.147Z,7.45
2018-03-22T09:45:52.487Z,7.47
2018-03-22T09:48:20.815Z,7.43
2018-03-22T09:50:48.937Z,7.47
2018-03-22T09:53:18.362Z,7.46
2018-03-22T09:55:46.472Z,7.48
2018-03-22T09:58:14.587Z,7.51
2018-03-22T10:00:42.751Z,7.48
2018-03-22T10:03:10.881Z,7.54
2018-03-22T10:05:38.986Z,7.58
2018-03-22T10:08:07.164Z,7.60
2018-03-22T10:10:35.244Z,7.65
2018-03-22T10:13:03.330Z,7.60
2018-03-22T10:15:31.464Z,7.63
2018-03-22T10:17:59.574Z,7.62
2018-03-22T10:20:27.698Z,7.58
2018-03-22T10:22:55.805Z,7.66
2018-03-22T10:25:23.904Z,7.68
2018-03-22T10:27:52.032Z,7.74
2018-03-22T10:30:21.413Z,7.77
2018-03-22T10:32:49.975Z,7.79
2018-03-22T10:35:18.087Z,7.87
2018-03-22T10:37:46.205Z,7.89
2018-03-22T10:40:14.304Z,7.87
2018-03-22T10:42:42.501Z,7.86
2018-03-22T10:45:10.571Z,7.85
2018-03-22T10:47:38.666Z,7.86
2018-03-22T10:50:06.803Z,7.84
2018-03-22T10:52:34.952Z,7.81
2018-03-22T10:55:03.304Z,7.81
2018-03-22T10:57:31.435Z,7.82
2018-03-22T10:59:59.548Z,7.84
2018-03-22T11:02:34.049Z,7.82
2018-03-22T11:05:02.123Z,7.86
2018-03-22T11:07:31.188Z,7.82
2018-03-22T11:09:59.274Z,7.81
2018-03-22T11:12:27.370Z,7.82
2018-03-22T11:14:55.488Z,7.82
2018-03-22T11:17:23.598Z,7.88
2018-03-22T11:19:52.288Z,7.95
2018-03-22T11:22:20.400Z,7.93
2018-03-22T11:24:48.490Z,7.94
2018-03-22T11:27:16.890Z,7.97
2018-03-22T11:29:45.011Z,7.99
2018-03-22T11:32:13.107Z,8.01
2018-03-22T11:34:41.235Z,8.05
2018-03-22T11:37:09.331Z,8.09
2018-03-22T11:39:37.430Z,8.13
2018-03-22T11:42:05.548Z,8.19
2018-03-22T11:44:33.657Z,8.23
2018-03-22T11:47:01.765Z,8.26
2018-03-22T11:49:29.874Z,8.29
2018-03-22T11:51:57.978Z,8.30
2018-03-22T11:54:26.091Z,8.33
2018-03-22T12:09:54.203Z,8.47
2018-03-22T12:12:22.768Z,8.49
2018-03-22T12:14:50.880Z,8.53
2018-03-22T12:17:19.619Z,8.49
2018-03-22T12:19:47.782Z,8.57
2018-03-22T12:22:15.969Z,8.66
2018-03-22T12:24:44.087Z,8.70
2018-03-22T12:27:13.090Z,8.73
2018-03-22T12:29:41.203Z,8.62
2018-03-22T12:32:09.468Z,8.59
2018-03-22T12:34:37.569Z,8.67
2018-03-22T12:37:05.950Z,8.81
2018-03-22T12:39:34.023Z,8.69
2018-03-22T12:42:03.495Z,8.65
2018-03-22T12:44:31.619Z,8.61
2018-03-22T12:47:00.084Z,8.63
2018-03-22T12:49:28.171Z,8.62
2018-03-22T12:51:57.241Z,8.65
2018-03-22T12:54:25.430Z,8.70
2018-03-22T12:56:53.543Z,8.71
2018-03-22T12:59:24.319Z,8.70
2018-03-22T13:01:52.423Z,8.74
2018-03-22T13:04:20.518Z,8.78
2018-03-22T13:06:49.155Z,8.80
2018-03-22T13:09:17.265Z,8.90
2018-03-22T13:11:45.398Z,8.98
2018-03-22T13:27:13.521Z,8.86
2018-03-22T13:29:47.213Z,8.76
2018-03-22T13:32:15.309Z,8.78
2018-03-22T13:34:43.437Z,8.80
2018-03-22T13:37:11.530Z,8.76
2018-03-22T13:39:39.976Z,8.79
2018-03-22T13:42:08.078Z,8.76
2018-03-22T13:44:36.168Z,8.68
2018-03-22T13:47:04.282Z,8.67
2018-03-22T13:49:32.415Z,8.66
2018-03-22T13:52:00.504Z,8.61
2018-03-22T13:54:29.287Z,8.62
2018-03-22T13:56:57.995Z,8.63
2018-03-22T13:59:26.245Z,8.64
2018-03-22T14:01:54.341Z,8.65
2018-03-22T14:04:22.487Z,8.58
2018-03-22T14:06:51.335Z,8.56
2018-03-22T14:09:19.475Z,8.54
2018-03-22T14:11:47.602Z,8.53
2018-03-22T14:14:15.691Z,8.53
2018-03-22T14:16:43.788Z,8.54
2018-03-22T14:19:11.936Z,8.55
2018-03-22T14:21:40.117Z,8.50
2018-03-22T14:24:08.582Z,8.47
2018-03-22T14:26:36.703Z,8.48
2018-03-22T14:29:04.787Z,8.52
2018-03-22T14:31:32.917Z,8.42
2018-03-22T14:34:01.348Z,8.39
2018-03-22T14:36:29.462Z,8.44
2018-03-22T14:38:57.990Z,8.48
2018-03-22T14:41:26.093Z,8.45
2018-03-22T14:43:54.200Z,8.49
2018-03-22T14:46:22.319Z,8.45
2018-03-22T14:48:50.410Z,8.36
2018-03-22T14:51:18.526Z,8.32
2018-03-22T14:53:46.630Z,8.31
2018-03-22T14:56:15.031Z,8.33
2018-03-22T14:58:43.142Z,8.36
2018-03-22T15:01:11.256Z,8.36
2018-03-22T15:03:39.356Z,8.32
2018-03-22T15:06:07.482Z,8.39
2018-03-22T15:08:35.627Z,8.38
2018-03-22T15:11:03.714Z,8.38
2018-03-22T15:13:31.810Z,8.39
2018-03-22T15:15:59.928Z,8.39
2018-03-22T15:18:28.023Z,8.41
2018-03-22T15:20:56.189Z,8.36
2018-03-22T15:23:24.330Z,8.44
2018-03-22T15:25:53.902Z,8.39
2018-03-22T15:28:22.051Z,8.37
2018-03-22T15:30:50.572Z,8.33
2018-03-22T15:33:18.754Z,8.37
2018-03-22T15:35:46.900Z,8.31
2018-03-22T15:38:15.616Z,8.30
2018-03-22T15:40:43.708Z,8.26
2018-03-22T15:43:11.801Z,8.27
2018-03-22T15:45:40.230Z,8.37
2018-03-22T15:48:08.343Z,8.39
2018-03-22T15:50:36.468Z,8.40
2018-03-22T15:53:04.584Z,8.38
2018-03-22T15:55:32.675Z,8.44
2018-03-22T15:58:00.790Z,8.44
2018-03-22T16:00:29.005Z,8.42
2018-03-22T16:02:57.089Z,8.42
2018-03-22T16:05:26.167Z,8.42
2018-03-22T16:07:54.256Z,8.39
2018-03-22T16:10:22.686Z,8.45
2018-03-22T16:12:50.821Z,8.46
2018-03-22T16:15:19.788Z,8.51
2018-03-22T16:17:47.888Z,8.51
2018-03-22T16:20:16.100Z,8.52
2018-03-22T16:22:45.233Z,8.51
2018-03-22T16:25:13.326Z,8.54
2018-03-22T16:27:41.423Z,8.58
2018-03-22T16:30:10.495Z,8.54
2018-03-22T16:32:38.597Z,8.55
2018-03-22T16:35:06.702Z,8.54
2018-03-22T16:37:34.809Z,8.51
2018-03-22T16:40:02.922Z,8.52
2018-03-22T16:42:31.064Z,8.50
2018-03-22T16:45:00.121Z,8.48
2018-03-22T16:47:28.312Z,8.51
2018-03-22T16:49:56.411Z,8.49
2018-03-22T16:52:24.546Z,8.49
2018-03-22T16:54:57.601Z,8.51
2018-03-22T16:57:26.025Z,8.49
2018-03-22T16:59:54.168Z,8.54
2018-03-22T17:02:22.281Z,8.53
2018-03-22T17:04:50.466Z,8.56
2018-03-22T17:07:18.555Z,8.54
2018-03-22T17:09:46.690Z,8.55
2018-03-22T17:12:14.792Z,8.49
2018-03-22T17:14:42.894Z,8.47
2018-03-22T17:17:10.995Z,8.48
2018-03-22T17:19:39.122Z,8.47
2018-03-22T17:22:07.226Z,8.50
2018-03-22T17:24:35.466Z,8.52
2018-03-22T17:27:03.551Z,8.48
2018-03-22T17:39:16.662Z,8.43
2018-03-22T17:41:45.765Z,8.44
2018-03-22T17:44:13.855Z,8.44
2018-03-22T17:46:41.987Z,8.48
2018-03-22T17:49:10.092Z,8.53
2018-03-22T17:51:38.189Z,8.53
2018-03-22T17:54:06.632Z,8.53
2018-03-22T17:56:34.721Z,8.48
2018-03-22T17:59:02.865Z,8.52
2018-03-22T18:01:30.970Z,8.56
2018-03-22T18:03:59.112Z,8.52
2018-03-22T18:06:27.205Z,8.56
2018-03-22T18:08:55.291Z,8.54
2018-03-22T18:11:24.429Z,8.53
2018-03-22T18:13:52.536Z,8.51
2018-03-22T18:16:20.636Z,8.54
2018-03-22T18:18:49.132Z,8.56
2018-03-22T18:21:18.131Z,8.55
2018-03-22T18:23:46.265Z,8.55
2018-03-22T18:26:14.431Z,8.53
2018-03-22T18:28:43.577Z,8.50
2018-03-22T18:31:11.661Z,8.51
2018-03-22T18:33:39.845Z,8.51
2018-03-22T18:36:07.994Z,8.49
2018-03-22T18:38:36.062Z,8.46
2018-03-22T18:41:05.033Z,8.45
2018-03-22T18:43:33.172Z,8.44
2018-03-22T18:46:01.268Z,8.42
2018-03-22T18:48:30.205Z,8.46
2018-03-22T18:50:58.320Z,8.45
2018-03-22T18:53:26.657Z,8.44
2018-03-22T18:55:54.817Z,8.48
2018-03-22T18:58:22.918Z,8.46
2018-03-22T19:00:51.013Z,8.47
2018-03-22T19:03:19.126Z,8.46
2018-03-22T19:05:47.214Z,8.47
2018-03-22T19:08:15.314Z,8.51
2018-03-22T19:10:43.453Z,8.44
2018-03-22T19:13:11.577Z,8.44
2018-03-22T19:15:39.705Z,8.45
2018-03-22T19:18:07.791Z,8.40
2018-03-22T19:20:35.921Z,8.41
2018-03-22T19:23:04.045Z,8.42
2018-03-22T19:25:32.151Z,8.40
2018-03-22T19:28:00.251Z,8.47
2018-03-22T19:30:28.371Z,8.45
2018-03-22T19:42:41.480Z,8.38
2018-03-22T19:45:09.582Z,8.39
2018-03-22T19:47:37.677Z,8.37
2018-03-22T19:50:05.848Z,8.35
2018-03-22T19:52:33.958Z,8.36
2018-03-22T19:55:02.197Z,8.39
2018-03-22T19:57:31.496Z,8.38
2018-03-22T19:59:59.908Z,8.37
2018-03-22T20:02:28.039Z,8.32
2018-03-22T20:04:56.104Z,8.29
2018-03-22T20:07:25.021Z,8.32
2018-03-22T20:09:53.179Z,8.31
2018-03-22T20:12:21.294Z,8.29
2018-03-22T20:14:49.393Z,8.32
2018-03-22T20:17:17.524Z,8.36
2018-03-22T20:19:45.634Z,8.30
2018-03-22T20:22:13.752Z,8.29
2018-03-22T20:24:41.918Z,8.34
2018-03-22T20:27:10.019Z,8.28
2018-03-22T20:29:38.842Z,8.20
2018-03-22T20:32:07.003Z,8.10
2018-03-22T20:34:35.129Z,8.12
2018-03-22T20:37:03.210Z,8.22
2018-03-22T20:39:31.326Z,8.16
2018-03-22T20:41:59.430Z,8.16
2018-03-22T20:44:27.571Z,8.25
2018-03-22T20:46:55.667Z,8.25
2018-03-22T20:49:23.943Z,8.29
2018-03-22T20:51:52.036Z,8.28
2018-03-22T20:54:20.183Z,8.24
2018-03-22T20:56:48.917Z,8.27
2018-03-22T20:59:17.043Z,8.24
2018-03-22T21:01:45.150Z,8.30
2018-03-22T21:04:13.317Z,8.28
2018-03-22T21:06:41.414Z,8.32
2018-03-22T21:09:10.402Z,8.25
2018-03-22T21:11:38.516Z,8.18
2018-03-22T21:14:06.630Z,8.26
2018-03-22T21:16:34.740Z,8.25
2018-03-22T21:19:02.875Z,8.28
2018-03-22T21:21:31.129Z,8.23
2018-03-22T21:23:59.213Z,8.23
2018-03-22T21:26:27.379Z,8.27
2018-03-22T21:28:55.531Z,8.25
2018-03-22T21:31:24.418Z,8.35
2018-03-22T21:33:57.529Z,8.35
2018-03-22T21:36:25.636Z,8.34
2018-03-22T21:38:53.755Z,8.35
2018-03-22T21:41:22.696Z,8.36
2018-03-22T21:44:02.574Z,8.35
2018-03-22T21:46:30.715Z,8.33
2018-03-22T21:48:58.828Z,8.33
2018-03-22T21:51:29.084Z,8.31
2018-03-22T21:53:58.130Z,8.31
2018-03-22T21:56:26.256Z,8.19
2018-03-22T21:58:54.721Z,8.13
2018-03-22T22:01:22.822Z,8.11
2018-03-22T22:03:50.926Z,8.06
2018-03-22T22:06:19.030Z,8.01
2018-03-22T22:08:47.142Z,7.94
2018-03-22T22:11:16.155Z,8.01
2018-03-22T22:13:44.272Z,8.04
2018-03-22T22:16:12.422Z,8.08
2018-03-22T22:18:40.522Z,8.08
2018-03-22T22:21:08.972Z,8.08
2018-03-22T22:23:37.066Z,8.08
2018-03-22T22:26:05.193Z,8.02
2018-03-22T22:28:34.244Z,8.03
2018-03-22T22:31:02.349Z,8.01
2018-03-22T22:33:30.441Z,8.02
2018-03-22T22:36:00.357Z,7.94
2018-03-22T22:38:29.144Z,7.93
2018-03-22T22:40:57.240Z,7.91
2018-03-22T22:43:25.376Z,7.94
2018-03-22T22:45:53.550Z,7.96
2018-03-22T22:48:21.694Z,7.90
2018-03-22T22:50:49.807Z,7.79
2018-03-22T22:53:18.283Z,7.78
2018-03-22T22:55:46.382Z,7.82
2018-03-22T22:58:14.498Z,7.88
2018-03-22T23:00:42.914Z,7.83
2018-03-22T23:03:10.982Z,7.83
2018-03-22T23:05:39.632Z,7.81
2018-03-22T23:08:07.826Z,7.82
2018-03-22T23:10:36.732Z,7.85
2018-03-22T23:13:10.294Z,7.74
2018-03-22T23:15:39.287Z,7.72
2018-03-22T23:18:07.774Z,7.81
2018-03-22T23:20:36.690Z,7.83
2018-03-22T23:23:04.940Z,7.89
2018-03-22T23:25:33.652Z,7.88
2018-03-22T23:28:01.824Z,7.92
2018-03-22T23:30:29.980Z,7.84
2018-03-22T23:32:58.076Z,7.81
2018-03-22T23:35:26.286Z,7.89
2018-03-22T23:37:54.609Z,7.86
2018-03-22T23:40:22.771Z,7.83
2018-03-22T23:42:50.886Z,7.77
2018-03-22T23:45:18.978Z,7.81
2018-03-22T23:47:47.530Z,7.76
2018-03-22T23:50:15.643Z,7.73
2018-03-22T23:52:44.030Z,7.76
2018-03-22T23:55:12.915Z,7.74
2018-03-22T23:57:41.022Z,7.74
